sensor_id;sensor_type;location;lat;lon;timestamp;pressure;altitude;pressure_sealevel;temperature;humidity
69198;BME280;56311;50.298;8.514;2023-05-25T00:00:00;98470.0;;;6.0;100.0
69198;BME280;56311;50.298;8.514;2023-05-25T00:02:00;98470.0;;;6.0;100.0
69198;BME280;56311;50.298;8.514;2023-05-25T00:04:00;98470.0;;;5.9;100.0
69198;BME280;56311;50.298;8.514;2023-05-25T00:06:01;98470.0;;;5.9;100.0
69198;BME280;56311;50.298;8.514;2023-05-25T00:08:00;98470.0;;;5.9;100.0
69198;BME280;56311;50.298;8.514;2023-05-25T00:10:00;98470.0;;;5.9;100.0
69198;BME280;56311;50.298;8.514;2023-05-25T00:12:00;98470.0;;;5.9;100.0
69198;BME280;56311;50.298;8.514;2023-05-25T00:14:00;98470.0;;;5.9;100.0
69198;BME280;56311;50.298;8.514;2023-05-25T00:16:00;98470.0;;;5.8;100.0
69198;BME280;56311;50.298;8.514;2023-05-25T00:18:01;98470.0;;;5.8;100.0
69198;BME280;56311;50.298;8.514;2023-05-25T00:20:00;98470.0;;;5.8;100.0
69198;BME280;56311;50.298;8.514;2023-05-25T00:22:00;98460.0;;;5.8;100.0
69198;BME280;56311;50.298;8.514;2023-05-25T00:24:00;98460.0;;;5.8;100.0
69198;BME280;56311;50.298;8.514;2023-05-25T00:26:02;98470.0;;;5.8;100.0
69198;BME280;56311;50.298;8.514;2023-05-25T00:28:00;98470.0;;;5.8;100.0
69198;BME280;56311;50.298;8.514;2023-05-25T00:30:00;98460.0;;;5.8;100.0
69198;BME280;56311;50.298;8.514;2023-05-25T00:32:00;98460.0;;;5.8;100.0
69198;BME280;56311;50.298;8.514;2023-05-25T00:34:00;98460.0;;;5.9;100.0
69198;BME280;56311;50.298;8.514;2023-05-25T00:36:00;98460.0;;;5.8;100.0
69198;BME280;56311;50.298;8.514;2023-05-25T00:38:00;98450.0;;;5.8;100.0
69198;BME280;56311;50.298;8.514;2023-05-25T00:40:00;98450.0;;;5.8;100.0
69198;BME280;56311;50.298;8.514;2023-05-25T00:42:01;98450.0;;;5.8;100.0
69198;BME280;56311;50.298;8.514;2023-05-25T00:44:00;98450.0;;;5.8;100.0
69198;BME280;56311;50.298;8.514;2023-05-25T00:46:01;98450.0;;;5.8;100.0
69198;BME280;56311;50.298;8.514;2023-05-25T00:48:00;98450.0;;;5.8;100.0
69198;BME280;56311;50.298;8.514;2023-05-25T00:50:00;98450.0;;;5.9;100.0
69198;BME280;56311;50.298;8.514;2023-05-25T00:52:00;98450.0;;;5.9;100.0
69198;BME280;56311;50.298;8.514;2023-05-25T00:54:01;98450.0;;;5.8;100.0
69198;BME280;56311;50.298;8.514;2023-05-25T00:56:04;98450.0;;;5.8;100.0
69198;BME280;56311;50.298;8.514;2023-05-25T00:58:03;98440.0;;;5.8;100.0
69198;BME280;56311;50.298;8.514;2023-05-25T01:00:01;98450.0;;;5.7;100.0
69198;BME280;56311;50.298;8.514;2023-05-25T01:02:02;98440.0;;;5.7;100.0
69198;BME280;56311;50.298;8.514;2023-05-25T01:04:01;98450.0;;;5.7;100.0
69198;BME280;56311;50.298;8.514;2023-05-25T01:06:00;98440.0;;;5.8;100.0
69198;BME280;56311;50.298;8.514;2023-05-25T01:08:01;98440.0;;;5.7;100.0
69198;BME280;56311;50.298;8.514;2023-05-25T01:10:01;98450.0;;;5.7;100.0
69198;BME280;56311;50.298;8.514;2023-05-25T01:12:01;98450.0;;;5.7;100.0
69198;BME280;56311;50.298;8.514;2023-05-25T01:14:00;98450.0;;;5.7;100.0
69198;BME280;56311;50.298;8.514;2023-05-25T01:16:00;98450.0;;;5.7;100.0
69198;BME280;56311;50.298;8.514;2023-05-25T01:18:00;98440.0;;;5.6;100.0
69198;BME280;56311;50.298;8.514;2023-05-25T01:20:00;98440.0;;;5.6;100.0
69198;BME280;56311;50.298;8.514;2023-05-25T01:22:03;98440.0;;;5.7;100.0
69198;BME280;56311;50.298;8.514;2023-05-25T01:24:03;98440.0;;;5.7;100.0
69198;BME280;56311;50.298;8.514;2023-05-25T01:26:02;98440.0;;;5.7;100.0
69198;BME280;56311;50.298;8.514;2023-05-25T01:28:05;98440.0;;;5.6;100.0
69198;BME280;56311;50.298;8.514;2023-05-25T01:30:01;98440.0;;;5.6;100.0
69198;BME280;56311;50.298;8.514;2023-05-25T01:32:01;98440.0;;;5.6;100.0
69198;BME280;56311;50.298;8.514;2023-05-25T01:34:00;98440.0;;;5.6;100.0
69198;BME280;56311;50.298;8.514;2023-05-25T01:36:00;98450.0;;;5.6;100.0
69198;BME280;56311;50.298;8.514;2023-05-25T01:38:00;98450.0;;;5.6;100.0
69198;BME280;56311;50.298;8.514;2023-05-25T01:40:00;98440.0;;;5.6;100.0
69198;BME280;56311;50.298;8.514;2023-05-25T01:42:00;98450.0;;;5.5;100.0
69198;BME280;56311;50.298;8.514;2023-05-25T01:44:00;98450.0;;;5.5;100.0
69198;BME280;56311;50.298;8.514;2023-05-25T01:46:07;98450.0;;;5.4;100.0
69198;BME280;56311;50.298;8.514;2023-05-25T01:48:05;98450.0;;;5.4;100.0
69198;BME280;56311;50.298;8.514;2023-05-25T01:50:05;98450.0;;;5.4;100.0
69198;BME280;56311;50.298;8.514;2023-05-25T01:52:06;98450.0;;;5.4;100.0
69198;BME280;56311;50.298;8.514;2023-05-25T01:54:06;98450.0;;;5.4;100.0
69198;BME280;56311;50.298;8.514;2023-05-25T01:56:02;98440.0;;;5.4;100.0
69198;BME280;56311;50.298;8.514;2023-05-25T01:58:01;98440.0;;;5.5;100.0
69198;BME280;56311;50.298;8.514;2023-05-25T02:00:01;98440.0;;;5.4;100.0
69198;BME280;56311;50.298;8.514;2023-05-25T02:02:00;98440.0;;;5.5;100.0
69198;BME280;56311;50.298;8.514;2023-05-25T02:04:00;98440.0;;;5.4;100.0
69198;BME280;56311;50.298;8.514;2023-05-25T02:06:00;98450.0;;;5.5;100.0
69198;BME280;56311;50.298;8.514;2023-05-25T02:08:00;98450.0;;;5.5;100.0
69198;BME280;56311;50.298;8.514;2023-05-25T02:10:00;98450.0;;;5.5;100.0
69198;BME280;56311;50.298;8.514;2023-05-25T02:12:00;98450.0;;;5.4;100.0
69198;BME280;56311;50.298;8.514;2023-05-25T02:14:00;98450.0;;;5.4;100.0
69198;BME280;56311;50.298;8.514;2023-05-25T02:16:00;98450.0;;;5.4;100.0
69198;BME280;56311;50.298;8.514;2023-05-25T02:18:00;98440.0;;;5.4;100.0
69198;BME280;56311;50.298;8.514;2023-05-25T02:20:00;98440.0;;;5.3;100.0
69198;BME280;56311;50.298;8.514;2023-05-25T02:22:00;98440.0;;;5.3;100.0
69198;BME280;56311;50.298;8.514;2023-05-25T02:24:00;98440.0;;;5.3;100.0
69198;BME280;56311;50.298;8.514;2023-05-25T02:26:00;98440.0;;;5.3;100.0
69198;BME280;56311;50.298;8.514;2023-05-25T02:28:00;98440.0;;;5.3;100.0
69198;BME280;56311;50.298;8.514;2023-05-25T02:30:00;98440.0;;;5.4;100.0
69198;BME280;56311;50.298;8.514;2023-05-25T02:32:00;98440.0;;;5.4;100.0
69198;BME280;56311;50.298;8.514;2023-05-25T02:34:00;98440.0;;;5.3;100.0
69198;BME280;56311;50.298;8.514;2023-05-25T02:36:00;98440.0;;;5.3;100.0
69198;BME280;56311;50.298;8.514;2023-05-25T02:38:00;98440.0;;;5.3;100.0
69198;BME280;56311;50.298;8.514;2023-05-25T02:40:00;98440.0;;;5.3;100.0
69198;BME280;56311;50.298;8.514;2023-05-25T02:42:00;98440.0;;;5.3;100.0
69198;BME280;56311;50.298;8.514;2023-05-25T02:44:00;98440.0;;;5.2;100.0
69198;BME280;56311;50.298;8.514;2023-05-25T02:46:00;98430.0;;;5.2;100.0
69198;BME280;56311;50.298;8.514;2023-05-25T02:48:00;98430.0;;;5.3;100.0
69198;BME280;56311;50.298;8.514;2023-05-25T02:50:00;98430.0;;;5.3;100.0
69198;BME280;56311;50.298;8.514;2023-05-25T02:52:00;98430.0;;;5.3;100.0
69198;BME280;56311;50.298;8.514;2023-05-25T02:54:00;98430.0;;;5.3;100.0
69198;BME280;56311;50.298;8.514;2023-05-25T02:56:00;98430.0;;;5.4;100.0
69198;BME280;56311;50.298;8.514;2023-05-25T02:58:00;98430.0;;;5.3;100.0
69198;BME280;56311;50.298;8.514;2023-05-25T03:00:00;98430.0;;;5.3;100.0
69198;BME280;56311;50.298;8.514;2023-05-25T03:02:00;98430.0;;;5.3;100.0
69198;BME280;56311;50.298;8.514;2023-05-25T03:04:00;98440.0;;;5.3;100.0
69198;BME280;56311;50.298;8.514;2023-05-25T03:06:00;98430.0;;;5.3;100.0
69198;BME280;56311;50.298;8.514;2023-05-25T03:08:00;98430.0;;;5.3;100.0
69198;BME280;56311;50.298;8.514;2023-05-25T03:10:00;98430.0;;;5.3;100.0
69198;BME280;56311;50.298;8.514;2023-05-25T03:12:00;98420.0;;;5.3;100.0
69198;BME280;56311;50.298;8.514;2023-05-25T03:14:00;98420.0;;;5.3;100.0
69198;BME280;56311;50.298;8.514;2023-05-25T03:16:00;98420.0;;;5.3;100.0
69198;BME280;56311;50.298;8.514;2023-05-25T03:18:00;98420.0;;;5.2;100.0
69198;BME280;56311;50.298;8.514;2023-05-25T03:20:00;98430.0;;;5.3;100.0
69198;BME280;56311;50.298;8.514;2023-05-25T03:22:01;98430.0;;;5.3;100.0
69198;BME280;56311;50.298;8.514;2023-05-25T03:24:00;98430.0;;;5.3;100.0
69198;BME280;56311;50.298;8.514;2023-05-25T03:26:00;98430.0;;;5.3;100.0
69198;BME280;56311;50.298;8.514;2023-05-25T03:28:00;98430.0;;;5.3;100.0
69198;BME280;56311;50.298;8.514;2023-05-25T03:30:00;98430.0;;;5.4;100.0
69198;BME280;56311;50.298;8.514;2023-05-25T03:32:00;98430.0;;;5.3;100.0
69198;BME280;56311;50.298;8.514;2023-05-25T03:34:00;98440.0;;;5.3;100.0
69198;BME280;56311;50.298;8.514;2023-05-25T03:36:00;98440.0;;;5.3;100.0
69198;BME280;56311;50.298;8.514;2023-05-25T03:38:00;98450.0;;;5.3;100.0
69198;BME280;56311;50.298;8.514;2023-05-25T03:40:00;98440.0;;;5.2;100.0
69198;BME280;56311;50.298;8.514;2023-05-25T03:42:00;98440.0;;;5.2;100.0
69198;BME280;56311;50.298;8.514;2023-05-25T03:44:00;98440.0;;;5.2;100.0
69198;BME280;56311;50.298;8.514;2023-05-25T03:46:00;98440.0;;;5.1;100.0
69198;BME280;56311;50.298;8.514;2023-05-25T03:48:00;98450.0;;;5.2;100.0
69198;BME280;56311;50.298;8.514;2023-05-25T03:50:00;98450.0;;;5.2;100.0
69198;BME280;56311;50.298;8.514;2023-05-25T03:52:00;98460.0;;;5.2;100.0
69198;BME280;56311;50.298;8.514;2023-05-25T03:54:00;98460.0;;;5.2;100.0
69198;BME280;56311;50.298;8.514;2023-05-25T03:56:00;98460.0;;;5.2;100.0
69198;BME280;56311;50.298;8.514;2023-05-25T03:58:00;98460.0;;;5.3;100.0
69198;BME280;56311;50.298;8.514;2023-05-25T04:00:00;98460.0;;;5.2;100.0
69198;BME280;56311;50.298;8.514;2023-05-25T04:02:00;98460.0;;;5.2;100.0
69198;BME280;56311;50.298;8.514;2023-05-25T04:04:00;98460.0;;;5.3;100.0
69198;BME280;56311;50.298;8.514;2023-05-25T04:06:00;98460.0;;;5.2;100.0
69198;BME280;56311;50.298;8.514;2023-05-25T04:08:00;98460.0;;;5.3;100.0
69198;BME280;56311;50.298;8.514;2023-05-25T04:10:00;98460.0;;;5.4;100.0
69198;BME280;56311;50.298;8.514;2023-05-25T04:12:00;98470.0;;;5.4;100.0
69198;BME280;56311;50.298;8.514;2023-05-25T04:14:00;98470.0;;;5.5;100.0
69198;BME280;56311;50.298;8.514;2023-05-25T04:16:00;98470.0;;;5.6;100.0
69198;BME280;56311;50.298;8.514;2023-05-25T04:18:00;98480.0;;;5.6;100.0
69198;BME280;56311;50.298;8.514;2023-05-25T04:20:00;98480.0;;;5.6;100.0
69198;BME280;56311;50.298;8.514;2023-05-25T04:22:00;98480.0;;;5.7;100.0
69198;BME280;56311;50.298;8.514;2023-05-25T04:24:00;98480.0;;;5.7;100.0
69198;BME280;56311;50.298;8.514;2023-05-25T04:26:00;98480.0;;;5.8;100.0
69198;BME280;56311;50.298;8.514;2023-05-25T04:28:00;98490.0;;;5.8;100.0
69198;BME280;56311;50.298;8.514;2023-05-25T04:30:00;98500.0;;;5.8;100.0
69198;BME280;56311;50.298;8.514;2023-05-25T04:32:00;98500.0;;;5.9;100.0
69198;BME280;56311;50.298;8.514;2023-05-25T04:34:00;98490.0;;;6.0;100.0
69198;BME280;56311;50.298;8.514;2023-05-25T04:36:00;98500.0;;;6.1;100.0
69198;BME280;56311;50.298;8.514;2023-05-25T04:38:00;98500.0;;;6.2;100.0
69198;BME280;56311;50.298;8.514;2023-05-25T04:40:00;98510.0;;;6.2;100.0
69198;BME280;56311;50.298;8.514;2023-05-25T04:42:00;98510.0;;;6.3;100.0
69198;BME280;56311;50.298;8.514;2023-05-25T04:44:00;98510.0;;;6.4;100.0
69198;BME280;56311;50.298;8.514;2023-05-25T04:46:00;98510.0;;;6.5;100.0
69198;BME280;56311;50.298;8.514;2023-05-25T04:48:00;98520.0;;;6.6;100.0
69198;BME280;56311;50.298;8.514;2023-05-25T04:50:00;98510.0;;;6.7;100.0
69198;BME280;56311;50.298;8.514;2023-05-25T04:52:00;98510.0;;;6.7;100.0
69198;BME280;56311;50.298;8.514;2023-05-25T04:54:00;98520.0;;;6.8;100.0
69198;BME280;56311;50.298;8.514;2023-05-25T04:56:00;98520.0;;;6.9;100.0
69198;BME280;56311;50.298;8.514;2023-05-25T04:58:00;98520.0;;;7.0;100.0
69198;BME280;56311;50.298;8.514;2023-05-25T05:00:00;98530.0;;;7.1;100.0
69198;BME280;56311;50.298;8.514;2023-05-25T05:02:00;98530.0;;;7.2;100.0
69198;BME280;56311;50.298;8.514;2023-05-25T05:04:00;98530.0;;;7.2;100.0
69198;BME280;56311;50.298;8.514;2023-05-25T05:06:00;98530.0;;;7.3;100.0
69198;BME280;56311;50.298;8.514;2023-05-25T05:08:00;98530.0;;;7.5;100.0
69198;BME280;56311;50.298;8.514;2023-05-25T05:10:00;98520.0;;;7.6;100.0
69198;BME280;56311;50.298;8.514;2023-05-25T05:12:00;98530.0;;;7.7;100.0
69198;BME280;56311;50.298;8.514;2023-05-25T05:14:00;98530.0;;;7.8;100.0
69198;BME280;56311;50.298;8.514;2023-05-25T05:16:00;98530.0;;;7.9;100.0
69198;BME280;56311;50.298;8.514;2023-05-25T05:18:00;98530.0;;;7.9;100.0
69198;BME280;56311;50.298;8.514;2023-05-25T05:20:00;98540.0;;;7.9;100.0
69198;BME280;56311;50.298;8.514;2023-05-25T05:22:00;98540.0;;;8.1;100.0
69198;BME280;56311;50.298;8.514;2023-05-25T05:24:00;98550.0;;;8.1;100.0
69198;BME280;56311;50.298;8.514;2023-05-25T05:26:00;98550.0;;;8.1;100.0
69198;BME280;56311;50.298;8.514;2023-05-25T05:28:00;98550.0;;;7.9;100.0
69198;BME280;56311;50.298;8.514;2023-05-25T05:30:00;98560.0;;;8.0;100.0
69198;BME280;56311;50.298;8.514;2023-05-25T05:32:00;98560.0;;;8.1;100.0
69198;BME280;56311;50.298;8.514;2023-05-25T05:34:00;98560.0;;;8.2;100.0
69198;BME280;56311;50.298;8.514;2023-05-25T05:36:00;98560.0;;;8.3;100.0
69198;BME280;56311;50.298;8.514;2023-05-25T05:38:00;98570.0;;;8.3;100.0
69198;BME280;56311;50.298;8.514;2023-05-25T05:40:00;98570.0;;;8.4;100.0
69198;BME280;56311;50.298;8.514;2023-05-25T05:42:00;98570.0;;;8.5;100.0
69198;BME280;56311;50.298;8.514;2023-05-25T05:44:00;98580.0;;;8.7;100.0
69198;BME280;56311;50.298;8.514;2023-05-25T05:46:00;98580.0;;;8.9;100.0
69198;BME280;56311;50.298;8.514;2023-05-25T05:48:00;98580.0;;;9.2;100.0
69198;BME280;56311;50.298;8.514;2023-05-25T05:50:00;98580.0;;;9.7;100.0
69198;BME280;56311;50.298;8.514;2023-05-25T05:52:01;98570.0;;;9.9;100.0
69198;BME280;56311;50.298;8.514;2023-05-25T05:54:00;98580.0;;;10.0;100.0
69198;BME280;56311;50.298;8.514;2023-05-25T05:56:00;98570.0;;;9.9;100.0
69198;BME280;56311;50.298;8.514;2023-05-25T05:58:00;98580.0;;;9.9;100.0
69198;BME280;56311;50.298;8.514;2023-05-25T06:00:00;98580.0;;;9.8;100.0
69198;BME280;56311;50.298;8.514;2023-05-25T06:02:00;98580.0;;;9.8;100.0
69198;BME280;56311;50.298;8.514;2023-05-25T06:04:00;98580.0;;;9.8;100.0
69198;BME280;56311;50.298;8.514;2023-05-25T06:06:00;98580.0;;;9.8;100.0
69198;BME280;56311;50.298;8.514;2023-05-25T06:08:00;98580.0;;;9.8;100.0
69198;BME280;56311;50.298;8.514;2023-05-25T06:10:00;98590.0;;;9.7;100.0
69198;BME280;56311;50.298;8.514;2023-05-25T06:12:00;98590.0;;;9.6;100.0
69198;BME280;56311;50.298;8.514;2023-05-25T06:14:00;98600.0;;;9.6;100.0
69198;BME280;56311;50.298;8.514;2023-05-25T06:16:00;98590.0;;;9.8;100.0
69198;BME280;56311;50.298;8.514;2023-05-25T06:18:00;98590.0;;;9.9;100.0
69198;BME280;56311;50.298;8.514;2023-05-25T06:20:00;98590.0;;;10.0;100.0
69198;BME280;56311;50.298;8.514;2023-05-25T06:22:00;98600.0;;;10.1;100.0
69198;BME280;56311;50.298;8.514;2023-05-25T06:24:00;98600.0;;;10.0;100.0
69198;BME280;56311;50.298;8.514;2023-05-25T06:26:02;98590.0;;;10.1;100.0
69198;BME280;56311;50.298;8.514;2023-05-25T06:28:00;98590.0;;;10.2;100.0
69198;BME280;56311;50.298;8.514;2023-05-25T06:30:00;98590.0;;;10.3;100.0
69198;BME280;56311;50.298;8.514;2023-05-25T06:32:00;98590.0;;;10.4;100.0
69198;BME280;56311;50.298;8.514;2023-05-25T06:34:00;98600.0;;;10.6;100.0
69198;BME280;56311;50.298;8.514;2023-05-25T06:36:00;98600.0;;;10.6;100.0
69198;BME280;56311;50.298;8.514;2023-05-25T06:38:00;98610.0;;;10.7;100.0
69198;BME280;56311;50.298;8.514;2023-05-25T06:40:00;98610.0;;;10.6;100.0
69198;BME280;56311;50.298;8.514;2023-05-25T06:42:00;98610.0;;;10.5;100.0
69198;BME280;56311;50.298;8.514;2023-05-25T06:44:00;98600.0;;;10.5;100.0
69198;BME280;56311;50.298;8.514;2023-05-25T06:46:00;98600.0;;;10.7;100.0
69198;BME280;56311;50.298;8.514;2023-05-25T06:48:00;98600.0;;;10.9;100.0
69198;BME280;56311;50.298;8.514;2023-05-25T06:50:00;98600.0;;;11.0;100.0
69198;BME280;56311;50.298;8.514;2023-05-25T06:52:00;98600.0;;;11.1;100.0
69198;BME280;56311;50.298;8.514;2023-05-25T06:54:00;98590.0;;;10.8;100.0
69198;BME280;56311;50.298;8.514;2023-05-25T06:56:00;98590.0;;;10.7;100.0
69198;BME280;56311;50.298;8.514;2023-05-25T06:58:00;98590.0;;;10.8;100.0
69198;BME280;56311;50.298;8.514;2023-05-25T07:00:00;98590.0;;;10.9;100.0
69198;BME280;56311;50.298;8.514;2023-05-25T07:02:00;98600.0;;;11.0;100.0
69198;BME280;56311;50.298;8.514;2023-05-25T07:04:00;98590.0;;;11.1;100.0
69198;BME280;56311;50.298;8.514;2023-05-25T07:06:00;98590.0;;;11.3;100.0
69198;BME280;56311;50.298;8.514;2023-05-25T07:08:00;98590.0;;;11.1;100.0
69198;BME280;56311;50.298;8.514;2023-05-25T07:10:02;98600.0;;;11.2;100.0
69198;BME280;56311;50.298;8.514;2023-05-25T07:12:00;98590.0;;;11.3;100.0
69198;BME280;56311;50.298;8.514;2023-05-25T07:14:00;98590.0;;;11.6;100.0
69198;BME280;56311;50.298;8.514;2023-05-25T07:16:00;98590.0;;;11.9;100.0
69198;BME280;56311;50.298;8.514;2023-05-25T07:18:00;98590.0;;;11.8;100.0
69198;BME280;56311;50.298;8.514;2023-05-25T07:20:00;98590.0;;;11.7;99.7
69198;BME280;56311;50.298;8.514;2023-05-25T07:22:00;98590.0;;;11.9;100.0
69198;BME280;56311;50.298;8.514;2023-05-25T07:24:00;98590.0;;;11.9;98.7
69198;BME280;56311;50.298;8.514;2023-05-25T07:26:00;98590.0;;;12.1;100.0
69198;BME280;56311;50.298;8.514;2023-05-25T07:28:00;98580.0;;;12.1;100.0
69198;BME280;56311;50.298;8.514;2023-05-25T07:30:00;98590.0;;;12.3;99.7
69198;BME280;56311;50.298;8.514;2023-05-25T07:32:00;98590.0;;;12.5;97.8
69198;BME280;56311;50.298;8.514;2023-05-25T07:34:00;98590.0;;;12.6;98.8
69198;BME280;56311;50.298;8.514;2023-05-25T07:36:01;98590.0;;;12.8;99.5
69198;BME280;56311;50.298;8.514;2023-05-25T07:38:01;98590.0;;;12.9;94.8
69198;BME280;56311;50.298;8.514;2023-05-25T07:40:00;98590.0;;;13.0;98.2
69198;BME280;56311;50.298;8.514;2023-05-25T07:42:00;98590.0;;;13.1;96.5
69198;BME280;56311;50.298;8.514;2023-05-25T07:44:00;98600.0;;;13.4;96.3
69198;BME280;56311;50.298;8.514;2023-05-25T07:46:00;98600.0;;;13.5;93.9
69198;BME280;56311;50.298;8.514;2023-05-25T07:48:00;98600.0;;;13.4;90.9
69198;BME280;56311;50.298;8.514;2023-05-25T07:50:00;98600.0;;;13.4;88.8
69198;BME280;56311;50.298;8.514;2023-05-25T07:52:00;98600.0;;;13.6;89.0
69198;BME280;56311;50.298;8.514;2023-05-25T07:54:00;98600.0;;;13.7;88.7
69198;BME280;56311;50.298;8.514;2023-05-25T07:56:00;98600.0;;;13.6;87.4
69198;BME280;56311;50.298;8.514;2023-05-25T07:58:00;98600.0;;;13.5;87.4
69198;BME280;56311;50.298;8.514;2023-05-25T08:00:00;98600.0;;;13.5;91.0
69198;BME280;56311;50.298;8.514;2023-05-25T08:02:00;98590.0;;;13.6;90.9
69198;BME280;56311;50.298;8.514;2023-05-25T08:04:00;98600.0;;;13.7;90.4
69198;BME280;56311;50.298;8.514;2023-05-25T08:06:00;98600.0;;;13.7;89.7
69198;BME280;56311;50.298;8.514;2023-05-25T08:08:00;98600.0;;;13.7;86.6
69198;BME280;56311;50.298;8.514;2023-05-25T08:10:01;98600.0;;;13.8;87.1
69198;BME280;56311;50.298;8.514;2023-05-25T08:12:00;98590.0;;;14.0;88.2
69198;BME280;56311;50.298;8.514;2023-05-25T08:14:00;98590.0;;;14.3;86.6
69198;BME280;56311;50.298;8.514;2023-05-25T08:16:00;98590.0;;;14.3;83.7
69198;BME280;56311;50.298;8.514;2023-05-25T08:18:00;98600.0;;;14.4;84.2
69198;BME280;56311;50.298;8.514;2023-05-25T08:20:00;98590.0;;;14.4;78.3
69198;BME280;56311;50.298;8.514;2023-05-25T08:22:00;98590.0;;;14.3;77.3
69198;BME280;56311;50.298;8.514;2023-05-25T08:24:00;98590.0;;;14.4;80.3
69198;BME280;56311;50.298;8.514;2023-05-25T08:26:00;98590.0;;;14.5;79.3
69198;BME280;56311;50.298;8.514;2023-05-25T08:28:00;98590.0;;;14.5;78.2
69198;BME280;56311;50.298;8.514;2023-05-25T08:30:00;98590.0;;;14.5;78.4
69198;BME280;56311;50.298;8.514;2023-05-25T08:32:00;98590.0;;;14.8;79.1
69198;BME280;56311;50.298;8.514;2023-05-25T08:34:00;98590.0;;;14.5;79.6
69198;BME280;56311;50.298;8.514;2023-05-25T08:36:00;98600.0;;;14.5;80.3
69198;BME280;56311;50.298;8.514;2023-05-25T08:38:00;98600.0;;;14.8;80.6
69198;BME280;56311;50.298;8.514;2023-05-25T08:40:00;98590.0;;;14.8;80.0
69198;BME280;56311;50.298;8.514;2023-05-25T08:42:01;98600.0;;;14.8;77.0
69198;BME280;56311;50.298;8.514;2023-05-25T08:44:00;98600.0;;;14.9;79.1
69198;BME280;56311;50.298;8.514;2023-05-25T08:46:03;98600.0;;;14.8;76.1
69198;BME280;56311;50.298;8.514;2023-05-25T08:48:00;98600.0;;;14.8;75.5
69198;BME280;56311;50.298;8.514;2023-05-25T08:50:00;98600.0;;;14.9;73.8
69198;BME280;56311;50.298;8.514;2023-05-25T08:52:00;98600.0;;;15.0;71.7
69198;BME280;56311;50.298;8.514;2023-05-25T08:54:05;98600.0;;;15.0;71.7
69198;BME280;56311;50.298;8.514;2023-05-25T08:56:01;98600.0;;;15.0;72.3
69198;BME280;56311;50.298;8.514;2023-05-25T08:58:05;98600.0;;;15.0;72.4
69198;BME280;56311;50.298;8.514;2023-05-25T09:00:05;98600.0;;;15.1;71.8
69198;BME280;56311;50.298;8.514;2023-05-25T09:02:07;98590.0;;;14.9;75.6
69198;BME280;56311;50.298;8.514;2023-05-25T09:04:01;98590.0;;;15.2;74.2
69198;BME280;56311;50.298;8.514;2023-05-25T09:06:00;98590.0;;;15.4;72.0
69198;BME280;56311;50.298;8.514;2023-05-25T09:08:01;98600.0;;;15.7;72.2
69198;BME280;56311;50.298;8.514;2023-05-25T09:10:01;98600.0;;;16.0;71.7
69198;BME280;56311;50.298;8.514;2023-05-25T09:12:00;98600.0;;;15.9;68.7
69198;BME280;56311;50.298;8.514;2023-05-25T09:14:00;98590.0;;;15.4;72.0
69198;BME280;56311;50.298;8.514;2023-05-25T09:16:00;98600.0;;;15.5;73.8
69198;BME280;56311;50.298;8.514;2023-05-25T09:18:00;98600.0;;;15.3;70.3
69198;BME280;56311;50.298;8.514;2023-05-25T09:20:00;98600.0;;;15.0;72.8
69198;BME280;56311;50.298;8.514;2023-05-25T09:22:00;98610.0;;;15.3;72.6
69198;BME280;56311;50.298;8.514;2023-05-25T09:24:01;98610.0;;;15.3;72.7
69198;BME280;56311;50.298;8.514;2023-05-25T09:26:00;98610.0;;;15.5;71.6
69198;BME280;56311;50.298;8.514;2023-05-25T09:28:00;98620.0;;;15.4;69.8
69198;BME280;56311;50.298;8.514;2023-05-25T09:30:01;98610.0;;;15.1;70.7
69198;BME280;56311;50.298;8.514;2023-05-25T09:32:03;98620.0;;;15.4;68.9
69198;BME280;56311;50.298;8.514;2023-05-25T09:34:00;98610.0;;;16.0;67.4
69198;BME280;56311;50.298;8.514;2023-05-25T09:36:00;98610.0;;;16.0;66.7
69198;BME280;56311;50.298;8.514;2023-05-25T09:38:00;98610.0;;;15.9;68.1
69198;BME280;56311;50.298;8.514;2023-05-25T09:40:00;98620.0;;;15.4;68.7
69198;BME280;56311;50.298;8.514;2023-05-25T09:42:00;98620.0;;;15.6;70.3
69198;BME280;56311;50.298;8.514;2023-05-25T09:44:00;98620.0;;;15.7;72.0
69198;BME280;56311;50.298;8.514;2023-05-25T09:46:00;98620.0;;;15.9;71.0
69198;BME280;56311;50.298;8.514;2023-05-25T09:48:00;98620.0;;;16.3;70.3
69198;BME280;56311;50.298;8.514;2023-05-25T09:50:01;98620.0;;;16.6;68.6
69198;BME280;56311;50.298;8.514;2023-05-25T09:52:00;98610.0;;;16.1;68.5
69198;BME280;56311;50.298;8.514;2023-05-25T09:54:01;98620.0;;;16.5;72.7
69198;BME280;56311;50.298;8.514;2023-05-25T09:56:00;98620.0;;;16.6;67.8
69198;BME280;56311;50.298;8.514;2023-05-25T09:58:00;98620.0;;;16.8;66.4
69198;BME280;56311;50.298;8.514;2023-05-25T10:00:00;98630.0;;;16.6;66.8
69198;BME280;56311;50.298;8.514;2023-05-25T10:02:00;98620.0;;;16.6;65.3
69198;BME280;56311;50.298;8.514;2023-05-25T10:04:00;98610.0;;;17.0;65.3
69198;BME280;56311;50.298;8.514;2023-05-25T10:06:01;98610.0;;;17.2;65.7
69198;BME280;56311;50.298;8.514;2023-05-25T10:08:00;98610.0;;;17.3;65.5
69198;BME280;56311;50.298;8.514;2023-05-25T10:10:03;98610.0;;;17.5;61.6
69198;BME280;56311;50.298;8.514;2023-05-25T10:12:00;98610.0;;;17.6;62.2
69198;BME280;56311;50.298;8.514;2023-05-25T10:14:02;98610.0;;;17.5;62.1
69198;BME280;56311;50.298;8.514;2023-05-25T10:16:01;98610.0;;;17.3;62.8
69198;BME280;56311;50.298;8.514;2023-05-25T10:18:01;98610.0;;;17.4;69.0
69198;BME280;56311;50.298;8.514;2023-05-25T10:20:02;98610.0;;;17.6;68.6
69198;BME280;56311;50.298;8.514;2023-05-25T10:22:03;98600.0;;;17.9;68.3
69198;BME280;56311;50.298;8.514;2023-05-25T10:24:04;98610.0;;;18.2;67.0
69198;BME280;56311;50.298;8.514;2023-05-25T10:26:02;98610.0;;;18.3;64.0
69198;BME280;56311;50.298;8.514;2023-05-25T10:28:02;98600.0;;;18.3;58.8
69198;BME280;56311;50.298;8.514;2023-05-25T10:30:01;98600.0;;;18.4;61.6
69198;BME280;56311;50.298;8.514;2023-05-25T10:32:00;98610.0;;;18.4;59.4
69198;BME280;56311;50.298;8.514;2023-05-25T10:34:00;98600.0;;;18.2;58.8
69198;BME280;56311;50.298;8.514;2023-05-25T10:36:02;98600.0;;;18.5;60.5
69198;BME280;56311;50.298;8.514;2023-05-25T10:38:00;98590.0;;;18.8;58.5
69198;BME280;56311;50.298;8.514;2023-05-25T10:40:00;98600.0;;;18.8;58.8
69198;BME280;56311;50.298;8.514;2023-05-25T10:42:01;98600.0;;;18.8;58.2
69198;BME280;56311;50.298;8.514;2023-05-25T10:44:00;98600.0;;;18.9;57.7
69198;BME280;56311;50.298;8.514;2023-05-25T10:46:00;98600.0;;;18.8;58.1
69198;BME280;56311;50.298;8.514;2023-05-25T10:48:00;98600.0;;;18.7;60.6
69198;BME280;56311;50.298;8.514;2023-05-25T10:50:00;98600.0;;;18.2;56.0
69198;BME280;56311;50.298;8.514;2023-05-25T10:52:01;98600.0;;;18.2;56.5
69198;BME280;56311;50.298;8.514;2023-05-25T10:54:00;98600.0;;;18.3;55.9
69198;BME280;56311;50.298;8.514;2023-05-25T10:56:01;98600.0;;;18.4;56.0
69198;BME280;56311;50.298;8.514;2023-05-25T10:58:06;98600.0;;;18.7;56.3
69198;BME280;56311;50.298;8.514;2023-05-25T11:00:01;98600.0;;;18.5;55.3